Edward Cornwallis — CGJV — position and weather

sailwx.info

Track history (hours):
 
Tides and Currents Weather Stations Pressure Air Temp Water Temp Dewpoint Dewpoint Depression Visibility Wind Speed Wind Dir Waves Ship Positions

Edward Cornwallis

Last reported at 2018-Apr-19 09:00 UTC. Time now 2018-Apr-19 10:08 UTC.
Position N 51°18' W 055°54'.

Length 83 m; draft 6 m.

Type: SAR. MMSI: 316020000.

Wind from 320 at 1 knots

Barometer 995.3 mb
Air temperature -1.3 ° C
Dewpoint -1.4 ° C

Date/timePositionNaut miles runAvg speedWind from/ knotsBaromVisibWave heightAir tempDewpointWater temp
2018-Apr-19 09:00N 51°18' W 055°54'0 0.0 320 / 1995.3 -1.3-1.4
2018-Apr-19 08:00N 51°18' W 055°54'0 0.0 995.4 -1.3-1.4
2018-Apr-19 07:00N 51°18' W 055°54'0 0.0 995.4 -1.2-1.3
2018-Apr-19 06:00N 51°18' W 055°54'0 0.0 995.4 -1.2-1.3
2018-Apr-19 05:00N 51°18' W 055°54'0 0.0 995.5 -1.4-1.5
2018-Apr-19 04:00N 51°18' W 055°54'0 0.0 996.0 -1.3-1.4
2018-Apr-19 03:00N 51°18' W 055°54'0 0.0 996.6 -1.4-1.5
2018-Apr-19 02:00N 51°18' W 055°54'0 0.0 997.7 -1.4-1.5
2018-Apr-19 01:00N 51°18' W 055°54'0 0.0 998.2 -1.5-1.6
2018-Apr-19 00:00N 51°18' W 055°54'0 0.0 080 / 1999.0 -1.6-1.7
2018-Apr-18 23:00N 51°18' W 055°54'0 0.0 070 / 1999.5 -1.7-1.9
2018-Apr-18 22:00N 51°18' W 055°54'0 0.0 080 / 1999.6 -1.8-1.9
2018-Apr-18 21:00N 51°18' W 055°54'1312.8 080 / 131001.2 -1.6-1.7
2018-Apr-18 20:00N 51°12' W 055°36'1312.6 140 / 111001.3 -1.4-1.5
2018-Apr-18 19:00N 51°00' W 055°42'1414.2 200 / 131002.3 -1.2-1.4
2018-Apr-18 18:00N 50°48' W 055°54'1312.6 200 / 131001.9 -1.3-1.4
2018-Apr-18 17:00N 50°36' W 056°00'1414.2 200 / 131002.5 -1.3-1.4
2018-Apr-18 16:00N 50°24' W 056°12'2814.2 190 / 121003.3 -1.2-1.3
2018-Apr-18 14:00N 50°00' W 056°36'17 8.3 210 / 111004.8 -1.1-1.2
2018-Apr-18 12:00N 49°48' W 056°54'4 3.9 060 / 51006.9 -0.1-0.2
2018-Apr-18 11:00N 49°48' W 056°48'4 3.9 320 / 21007.7 -0.2-0.4
2018-Apr-18 10:00N 49°48' W 056°54'10 9.8 060 / 41008.8 0.2-0.0
2018-Apr-18 09:00N 49°54' W 056°42'8 7.7 030 / 131011.1 -1.3-1.5
2018-Apr-18 08:00N 49°54' W 056°30'1312.6 050 / 101012.7 -1.4-1.7
2018-Apr-18 07:00N 50°06' W 056°24'7 7.1 060 / 141014.4 -2.1-2.3
2018-Apr-18 06:00N 50°12' W 056°18'8 7.7 080 / 181015.9 -2.5-2.7
2018-Apr-18 05:00N 50°12' W 056°06'8 7.7 110 / 91017.0 -1.0-2.5
2018-Apr-18 04:00N 50°12' W 055°54'10 9.8 110 / 121018.5 -1.1-2.7
2018-Apr-18 03:00N 50°06' W 055°42'4 3.8 110 / 171019.6 -2.5-3.9
2018-Apr-18 02:00N 50°06' W 055°36'8 7.7 110 / 111020.5 -0.5-3.1
2018-Apr-18 01:00N 50°06' W 055°24'10 9.8 100 / 101021.2 -2.2-4.1
2018-Apr-18 00:00N 50°00' W 055°12'7 7.1 100 / 121022.1 -2.4-4.4
2018-Apr-17 23:00N 49°54' W 055°06'8 7.7 080 / 121021.4 -2.6-5.2
2018-Apr-17 22:00N 49°54' W 055°18'6 6.0 090 / 141021.8 -2.5-4.4
2018-Apr-17 21:00N 49°48' W 055°18'7 7.1 090 / 151022.2 -2.2-4.1
2018-Apr-17 20:00N 49°42' W 055°12'6 6.0 080 / 131022.5 -1.7-4.0
2018-Apr-17 19:00N 49°36' W 055°12'6 6.0 070 / 91022.9 -1.3-4.3
2018-Apr-17 18:00N 49°30' W 055°12'0 0.0 350 / 61023.0 -0.0-5.1
2018-Apr-17 17:00N 49°30' W 055°12'0 0.0 350 / 61023.3 0.4-5.5
2018-Apr-17 16:00N 49°30' W 055°12'7 7.2 360 / 71024.0 -0.7-4.2
2018-Apr-17 15:00N 49°36' W 055°06'10 9.8 360 / 91024.2 -1.1-3.4
2018-Apr-17 14:00N 49°42' W 054°54'1211.6 340 / 111024.2 -1.3-3.7
2018-Apr-17 13:00N 49°42' W 054°36'10 9.8 360 / 131024.2 -1.3-5.6
2018-Apr-17 12:00N 49°36' W 054°24'7 7.2 310 / 151023.6 -1.0-4.6
2018-Apr-17 11:00N 49°30' W 054°18'1615.6 320 / 101023.3 -1.4-4.7
2018-Apr-17 10:00N 49°30' W 053°54'8 7.8 310 / 161022.9 -1.7-4.6
2018-Apr-17 09:00N 49°30' W 053°42'10 9.8 300 / 91022.2 -1.7-5.2
2018-Apr-17 08:00N 49°24' W 053°30'7 7.2 280 / 131022.2 -2.2-5.5
2018-Apr-17 07:00N 49°18' W 053°24'7 7.2 290 / 191022.2 -1.9-6.6
2018-Apr-17 06:00N 49°12' W 053°18'4 3.9 280 / 181022.1 -2.0-7.4
2018-Apr-17 05:00N 49°12' W 053°12'7 7.2 280 / 181022.2 -2.2-7.1
2018-Apr-17 04:00N 49°06' W 053°06'1312.6 280 / 181022.7 -2.0-6.9
2018-Apr-17 03:00N 48°54' W 053°00'4 3.9 280 / 171023.2 -1.8-6.2
2018-Apr-17 02:00N 48°54' W 052°54'7 7.2 290 / 161023.7 -1.9-7.0
2018-Apr-17 01:00N 48°48' W 052°48'6 6.0 290 / 171024.3 -2.2-6.9
2018-Apr-17 00:00N 48°42' W 052°48'7 7.2 300 / 171024.5 -2.3-7.1
2018-Apr-16 23:00N 48°36' W 052°42'0 0.0 330 / 141024.4 -2.5-6.4
2018-Apr-16 22:00N 48°36' W 052°42'7 7.2 330 / 191024.3 -2.5-6.3
2018-Apr-16 21:00N 48°30' W 052°36'6 6.0 320 / 181024.8 -2.2-6.3
2018-Apr-16 20:00N 48°24' W 052°36'6 6.0 320 / 211024.7 -2.2-7.0
2018-Apr-16 19:00N 48°18' W 052°36'1212.0 330 / 211024.6 -2.2-7.4
2018-Apr-16 18:00N 48°06' W 052°36'0 0.0 330 / 231025.2 -2.1-9.1
2018-Apr-16 17:00N 48°06' W 052°36'12 6.0 330 / 231025.1 -2.4-8.5
2018-Apr-16 15:00N 47°54' W 052°36'6 6.0 340 / 181025.7 -2.7-4.2
2018-Apr-16 14:00N 47°48' W 052°36'6 6.0 310 / 201025.9 -1.5-6.3
2018-Apr-16 13:00N 47°42' W 052°36'6 6.8 300 / 241025.5 -1.2-6.3
2018-Apr-16 12:10N 47°36' W 052°37'2 9.4
2018-Apr-16 11:55N 47°34' W 052°38'3 3.4
2018-Apr-16 11:00N 47°36' W 052°42'0 0.0 200 / 11026.9 1.5-6.8
2018-Apr-16 10:00N 47°36' W 052°42'0 0.0 210 / 21026.9 0.4-4.6
2018-Apr-16 09:00N 47°36' W 052°42'2 2.3 220 / 21027.0 -1.0-3.9
2018-Apr-16 08:01N 47°34' W 052°42'298.4
2018-Apr-16 08:00N 47°36' W 052°42'217.6 220 / 31027.1 -1.5-5.1
2018-Apr-16 07:52N 47°34' W 052°42'0 0.0
2018-Apr-16 07:22N 47°34' W 052°42'2 6.0
2018-Apr-16 07:00N 47°36' W 052°42'2 5.2 160 / 11027.5 -1.4-6.1
2018-Apr-16 06:34N 47°34' W 052°42'0 0.0
2018-Apr-16 06:25N 47°34' W 052°42'2 5.3
2018-Apr-16 06:00N 47°36' W 052°42'229.0 200 / 11027.6 -1.2-5.5
2018-Apr-16 05:55N 47°34' W 052°42'0 0.0
2018-Apr-16 05:22N 47°34' W 052°42'2 6.0
2018-Apr-16 05:00N 47°36' W 052°42'0 0.0 050 / 11027.1 -1.0-6.5
2018-Apr-16 04:00N 47°36' W 052°42'2 4.3 030 / 31026.5 -0.9-5.3
2018-Apr-16 03:28N 47°34' W 052°42'2 4.7
2018-Apr-16 03:00N 47°36' W 052°42'212.6 030 / 31026.0 -0.2-4.9
2018-Apr-16 02:49N 47°34' W 052°42'0 0.0
2018-Apr-16 02:25N 47°34' W 052°42'2 5.3
2018-Apr-16 02:00N 47°36' W 052°42'0 0.0 030 / 51025.5 0.2-5.2
2018-Apr-16 01:00N 47°36' W 052°42'229.0 040 / 21024.6 0.4-4.3
2018-Apr-16 00:55N 47°34' W 052°42'0 0.0
2018-Apr-16 00:19N 47°34' W 052°42'2 6.9
2018-Apr-16 00:00N 47°36' W 052°42'228.9 030 / 41023.5 0.6-4.4
2018-Apr-15 23:55N 47°34' W 052°42'0 0.0
2018-Apr-15 23:22N 47°34' W 052°42'2 6.0
2018-Apr-15 23:00N 47°36' W 052°42'229.1 030 / 11022.4 0.4-3.2
2018-Apr-15 22:55N 47°34' W 052°42'0 0.0
2018-Apr-15 22:25N 47°34' W 052°42'2 5.3
2018-Apr-15 22:00N 47°36' W 052°42'0 0.0 070 / 11021.0 0.5-2.6
2018-Apr-15 21:00N 47°36' W 052°42'0 0.0 080 / 11019.7 0.9-2.9
2018-Apr-15 19:00N 47°36' W 052°42'0 0.0 040 / 11017.6 1.8-4.1
2018-Apr-15 18:00N 47°36' W 052°42'0 0.0 150 / 21016.4 2.0-4.0
2018-Apr-15 17:00N 47°36' W 052°42'2 3.1 180 / 31015.0 2.8-5.4
2018-Apr-15 16:16N 47°34' W 052°42'2 8.2
2018-Apr-15 16:00N 47°36' W 052°42'212.6 190 / 31014.1 2.8-6.3
2018-Apr-15 15:49N 47°34' W 052°42'0 0.0
2018-Apr-15 15:25N 47°34' W 052°42'2 5.3
2018-Apr-15 15:00N 47°36' W 052°42'281.5 200 / 41012.9 2.0-6.9
2018-Apr-15 14:58N 47°34' W 052°42'0 0.0
2018-Apr-15 14:25N 47°34' W 052°42'2 5.3
2018-Apr-15 14:00N 47°36' W 052°42'229.0 180 / 21012.0 1.0-7.1
2018-Apr-15 13:55N 47°34' W 052°42'2 2.4
2018-Apr-15 13:00N 47°36' W 052°42'217.7 230 / 91010.8 -1.0-8.2
2018-Apr-15 12:52N 47°34' W 052°42'0 0.0
2018-Apr-15 12:28N 47°34' W 052°42'2 4.7
2018-Apr-15 12:00N 47°36' W 052°42'212.6 230 / 91010.7 -1.9-8.4
2018-Apr-15 11:49N 47°34' W 052°42'0 0.0
2018-Apr-15 11:25N 47°34' W 052°42'2 5.3
2018-Apr-15 11:00N 47°36' W 052°42'217.6 230 / 81009.9 -2.8-9.1
2018-Apr-15 10:52N 47°34' W 052°42'0 0.0
2018-Apr-15 10:28N 47°34' W 052°42'2 4.7
2018-Apr-15 10:00N 47°36' W 052°42'229.0 230 / 91008.8 -3.9-9.6
2018-Apr-15 09:55N 47°34' W 052°42'0 0.0
2018-Apr-15 09:28N 47°34' W 052°42'2 4.7
2018-Apr-15 09:00N 47°36' W 052°42'2 6.8 230 / 81007.5 -4.5-9.8
2018-Apr-15 08:40N 47°34' W 052°42'0 0.0
2018-Apr-15 08:25N 47°34' W 052°42'2 5.3
2018-Apr-15 08:00N 47°36' W 052°42'282.3 230 / 101005.7 -4.3-9.9
2018-Apr-15 07:58N 47°34' W 052°42'0 0.0
2018-Apr-15 07:28N 47°34' W 052°42'2 4.7
2018-Apr-15 07:00N 47°36' W 052°42'0 0.0 230 / 81004.7 -3.7-9.1
2018-Apr-15 06:00N 47°36' W 052°42'0 0.0 230 / 71003.7 -3.3-9.3
2018-Apr-15 05:00N 47°36' W 052°42'2 5.2 220 / 71003.1 -2.9-8.5
2018-Apr-15 04:34N 47°34' W 052°42'0 0.0
2018-Apr-15 04:10N 47°34' W 052°42'213.0
2018-Apr-15 04:00N 47°36' W 052°42'2 6.8 230 / 81002.1 -2.8-8.4
2018-Apr-15 03:40N 47°34' W 052°42'2 3.3
2018-Apr-15 03:00N 47°36' W 052°42'0 0.0 230 / 81001.2 -2.7-8.2
2018-Apr-15 02:00N 47°36' W 052°42'2 2.6 240 / 91000.6 -3.1-9.4
2018-Apr-15 01:07N 47°34' W 052°42'218.3
2018-Apr-15 01:00N 47°36' W 052°42'2 2.2 230 / 6999.9 -2.8-9.8
2018-Apr-14 23:58N 47°34' W 052°42'0 0.0
2018-Apr-14 23:22N 47°34' W 052°42'2 6.0
2018-Apr-14 23:00N 47°36' W 052°42'229.0 240 / 9997.9 -1.1-7.9
2018-Apr-14 22:55N 47°34' W 052°42'0 0.0
2018-Apr-14 22:25N 47°34' W 052°42'2 5.3
2018-Apr-14 22:00N 47°36' W 052°42'228.9 230 / 6997.3 0.3-0.5
2018-Apr-14 21:55N 47°34' W 052°42'0 0.0
2018-Apr-14 21:25N 47°34' W 052°42'2 5.3
2018-Apr-14 21:00N 47°36' W 052°42'212.6 230 / 8997.0 3.2 2.3
2018-Apr-14 20:49N 47°34' W 052°42'2 2.7
2018-Apr-14 20:00N 47°36' W 052°42'2 2.9 230 / 10996.9 5.0 1.4
2018-Apr-14 19:13N 47°34' W 052°42'210.1
2018-Apr-14 19:00N 47°36' W 052°42'262.5 230 / 10998.0 5.8 1.6
2018-Apr-14 18:57N 47°34' W 052°42'2 2.3
2018-Apr-14 18:00N 47°36' W 052°42'3 3.6 210 / 91000.1 6.0-0.6
2018-Apr-14 17:16N 47°33' W 052°42'3 9.5
2018-Apr-14 17:00N 47°36' W 052°42'333.2 220 / 101002.3 6.4 0.5
2018-Apr-14 16:55N 47°33' W 052°42'0 0.0
2018-Apr-14 16:28N 47°33' W 052°42'3 5.5
2018-Apr-14 16:00N 47°36' W 052°42'320.2 230 / 131004.1 5.4 0.6
2018-Apr-14 15:52N 47°33' W 052°42'0 0.0
2018-Apr-14 15:28N 47°33' W 052°42'3 5.5
2018-Apr-14 15:00N 47°36' W 052°42'393.1 230 / 121005.1 4.2 0.7
2018-Apr-14 14:58N 47°33' W 052°42'0 0.0
2018-Apr-14 14:22N 47°33' W 052°42'3 6.9
2018-Apr-14 14:00N 47°36' W 052°42'333.4 230 / 151005.3 2.8 0.7
2018-Apr-14 13:55N 47°33' W 052°42'0 0.0
2018-Apr-14 13:22N 47°33' W 052°42'3 6.9
2018-Apr-14 13:00N 47°36' W 052°42'320.2 230 / 131005.6 2.8 1.2
2018-Apr-14 12:52N 47°33' W 052°42'0 0.0
2018-Apr-14 12:25N 47°33' W 052°42'3 6.1
2018-Apr-14 12:00N 47°36' W 052°42'394.0 220 / 81005.8 2.6 1.5
2018-Apr-14 11:58N 47°33' W 052°42'0 0.0
2018-Apr-14 11:19N 47°33' W 052°42'3 8.0
2018-Apr-14 11:00N 47°36' W 052°42'333.4 230 / 61005.8 2.1 1.5
2018-Apr-14 10:55N 47°33' W 052°42'0 0.0
2018-Apr-14 10:28N 47°33' W 052°42'3 5.5
2018-Apr-14 10:00N 47°36' W 052°42'333.4 220 / 111005.0 2.2 1.9
2018-Apr-14 09:55N 47°33' W 052°42'3 2.8
2018-Apr-14 09:00N 47°36' W 052°42'3 4.9 220 / 81004.4 1.8 1.7
2018-Apr-14 08:28N 47°33' W 052°42'3 5.5
2018-Apr-14 08:00N 47°36' W 052°42'333.2 210 / 51004.5 1.7 1.6
2018-Apr-14 07:55N 47°33' W 052°42'0 0.0
2018-Apr-14 07:22N 47°33' W 052°42'3 6.9
2018-Apr-14 07:00N 47°36' W 052°42'394.0 200 / 11005.1 0.8 0.7
2018-Apr-14 06:58N 47°33' W 052°42'0 0.0
2018-Apr-14 06:25N 47°33' W 052°42'3 6.1
2018-Apr-14 06:00N 47°36' W 052°42'394.0 170 / 41006.1 0.3 0.1
2018-Apr-14 05:58N 47°33' W 052°42'0 0.0
2018-Apr-14 05:28N 47°33' W 052°42'3 5.5
2018-Apr-14 05:00N 47°36' W 052°42'333.2 180 / 21008.5 -0.3-0.5
2018-Apr-14 04:55N 47°33' W 052°42'0 0.0
2018-Apr-14 04:25N 47°33' W 052°42'3 6.1
2018-Apr-14 04:00N 47°36' W 052°42'333.2 180 / 21010.7 -0.5-0.6
2018-Apr-14 03:55N 47°33' W 052°42'0 0.0
2018-Apr-14 03:22N 47°33' W 052°42'3 6.9
2018-Apr-14 03:00N 47°36' W 052°42'314.6 190 / 21012.5 -0.7-0.8
2018-Apr-14 02:49N 47°33' W 052°42'0 0.0
2018-Apr-14 02:28N 47°33' W 052°42'3 5.5
2018-Apr-14 02:00N 47°36' W 052°42'333.2 160 / 21014.9 -0.9-1.1
2018-Apr-14 01:55N 47°33' W 052°42'0 0.0
2018-Apr-14 01:28N 47°33' W 052°42'3 5.5
2018-Apr-14 01:00N 47°36' W 052°42'394.0 200 / 31017.0 -1.1-1.2
2018-Apr-14 00:58N 47°33' W 052°42'0 0.0
2018-Apr-14 00:25N 47°33' W 052°42'3 6.1
2018-Apr-14 00:00N 47°36' W 052°42'333.4 200 / 41018.7 -0.3-1.4
2018-Apr-13 23:55N 47°33' W 052°42'0 0.0
2018-Apr-13 23:28N 47°33' W 052°42'3 5.5
2018-Apr-13 23:00N 47°36' W 052°42'394.0 200 / 41019.0 0.4-3.5
2018-Apr-13 22:58N 47°33' W 052°42'0 0.0
2018-Apr-13 22:22N 47°33' W 052°42'3 6.9
2018-Apr-13 22:00N 47°36' W 052°42'393.1 190 / 41019.6
2018-Apr-13 21:58N 47°33' W 052°42'0 0.0
2018-Apr-13 21:01N 47°33' W 052°42'3114.9
2018-Apr-13 21:00N 47°36' W 052°42'3 9.3
2018-Apr-13 20:43N 47°33' W 052°42'0 0.0
2018-Apr-13 20:13N 47°33' W 052°42'311.6
2018-Apr-13 20:00N 47°36' W 052°42'3 3.3 180 / 31021.5 3.0-9.9
2018-Apr-13 19:13N 47°33' W 052°42'311.6
2018-Apr-13 19:00N 47°36' W 052°42'0 0.0
2018-Apr-13 18:00N 47°36' W 052°42'0 0.0 180 / 51022.6 4.9-12.3
2018-Apr-13 17:00N 47°36' W 052°42'3 7.9 180 / 51023.2 4.5-12.5
2018-Apr-13 16:40N 47°33' W 052°42'3 3.8
2018-Apr-13 16:00N 47°36' W 052°42'0 0.0 170 / 41023.3 4.5-12.7
2018-Apr-13 15:00N 47°36' W 052°42'3 2.8 170 / 31023.7 5.5-12.2
2018-Apr-13 14:04N 47°33' W 052°42'335.7
2018-Apr-13 14:00N 47°36' W 052°42'333.4 170 / 31024.1 5.0-13.1
2018-Apr-13 13:55N 47°33' W 052°42'3 2.8
2018-Apr-13 13:00N 47°36' W 052°42'0 0.0 050 / 51023.8 3.2-7.8
2018-Apr-13 12:00N 47°36' W 052°42'0 0.0 170 / 11024.1 2.9-7.2
2018-Apr-13 11:00N 47°36' W 052°42'3 4.1 210 / 31024.0 -0.6-5.2
2018-Apr-13 10:22N 47°33' W 052°42'3 6.9
2018-Apr-13 10:00N 47°36' W 052°42'395.0 220 / 31023.5 -3.7-5.6
2018-Apr-13 09:58N 47°33' W 052°42'3 2.7
2018-Apr-13 09:00N 47°36' W 052°42'3 4.1 210 / 31023.2 -4.3-5.4
2018-Apr-13 08:22N 47°33' W 052°42'3 6.9
2018-Apr-13 08:00N 47°36' W 052°42'311.4 210 / 41022.8 -4.4-5.3
2018-Apr-13 07:46N 47°33' W 052°42'0 0.0
2018-Apr-13 07:25N 47°33' W 052°42'3 6.1
2018-Apr-13 07:00N 47°36' W 052°42'3 3.3 180 / 11022.2 -3.3-4.4
2018-Apr-13 06:13N 47°33' W 052°42'311.6
2018-Apr-13 06:00N 47°36' W 052°42'393.1 210 / 31021.4 -4.1-5.2
2018-Apr-13 05:58N 47°33' W 052°42'0 0.0
2018-Apr-13 05:19N 47°33' W 052°42'3 8.0
2018-Apr-13 05:00N 47°36' W 052°42'0 0.0 190 / 11021.1 -3.3-4.5
2018-Apr-13 04:00N 47°36' W 052°42'394.0 200 / 11021.0 -2.8-4.1
2018-Apr-13 03:58N 47°33' W 052°42'3 2.7
2018-Apr-13 03:00N 47°36' W 052°42'3 2.9 200 / 11020.8 -2.2-3.6
2018-Apr-13 02:07N 47°33' W 052°42'321.1
2018-Apr-13 02:00N 47°36' W 052°42'314.6 160 / 11020.3 -2.2-3.5
2018-Apr-13 01:49N 47°33' W 052°42'0 0.0
2018-Apr-13 01:25N 47°33' W 052°42'3 6.1
2018-Apr-13 01:00N 47°36' W 052°42'3 5.4 040 / 11020.1 -2.5-3.1
2018-Apr-13 00:31N 47°33' W 052°42'0 0.0
2018-Apr-13 00:25N 47°33' W 052°42'3 6.1
2018-Apr-13 00:00N 47°36' W 052°42'3 3.3 030 / 41019.6 -2.5-2.8
2018-Apr-12 23:13N 47°33' W 052°42'311.6
2018-Apr-12 23:00N 47°36' W 052°42'0 0.0 010 / 71019.0 -1.6-2.7
2018-Apr-12 22:00N 47°36' W 052°42'0 0.0 030 / 61018.5 -0.6-5.0
2018-Apr-12 21:00N 47°36' W 052°42'0 0.0 010 / 101018.3 0.1-5.1
2018-Apr-12 20:00N 47°36' W 052°42'0 0.0 030 / 71018.0 0.5-5.8
2018-Apr-12 19:00N 47°36' W 052°42'0 0.0 020 / 91018.0 0.4-4.4
2018-Apr-12 18:00N 47°36' W 052°42'3 5.9 030 / 81017.9 0.6-3.6
2018-Apr-12 17:33N 47°33' W 052°42'0 1.5
2018-Apr-12 17:28N 47°34' W 052°42'510.4
2018-Apr-12 17:00N 47°36' W 052°36'238.6 010 / 141018.3 -1.2-1.6
2018-Apr-12 16:56N 47°34' W 052°37'2 3.2
2018-Apr-12 16:25N 47°34' W 052°34'510.8
2018-Apr-12 16:00N 47°30' W 052°30'232.2 020 / 131018.4 -1.3-1.9
2018-Apr-12 15:55N 47°32' W 052°31'3 6.8
2018-Apr-12 15:29N 47°35' W 052°30'1 1.5
2018-Apr-12 15:00N 47°36' W 052°30'133.6 090 / 11018.7 -1.8-2.2
2018-Apr-12 14:58N 47°37' W 052°31'610.9
2018-Apr-12 14:23N 47°34' W 052°39'2 6.1
2018-Apr-12 14:00N 47°33' W 052°42'3244.9
2018-Apr-12 14:00N 47°36' W 052°42'3 5.3 050 / 61019.2 -0.5-3.7
2018-Apr-12 13:30N 47°33' W 052°42'3 5.1
2018-Apr-12 13:00N 47°36' W 052°42'313.6 040 / 51019.4 -1.4-2.7
2018-Apr-12 12:48N 47°33' W 052°42'0 0.0
2018-Apr-12 12:24N 47°33' W 052°42'0 0.0
2018-Apr-12 12:00N 47°33' W 052°42'3251.5
2018-Apr-12 12:00N 47°36' W 052°42'3 4.8 040 / 61019.4 -1.9-2.7
2018-Apr-12 11:27N 47°33' W 052°42'3 5.6
2018-Apr-12 11:00N 47°36' W 052°42'0 0.0 030 / 51019.4 -2.4-2.6
2018-Apr-12 10:00N 47°36' W 052°42'0 0.0 040 / 41019.3 -2.5-2.6
2018-Apr-12 09:00N 47°36' W 052°42'3 4.0 040 / 31019.2 -2.6-2.8
2018-Apr-12 08:21N 47°33' W 052°42'0 0.0
2018-Apr-12 08:00N 47°33' W 052°42'3258.5
2018-Apr-12 08:00N 47°36' W 052°42'3 4.8 160 / 11019.3 -2.8-2.9
2018-Apr-12 07:27N 47°33' W 052°42'0 0.0
2018-Apr-12 07:00N 47°33' W 052°42'3258.5
2018-Apr-12 07:00N 47°36' W 052°42'3 4.8 1019.3 -3.7-3.9
2018-Apr-12 06:27N 47°33' W 052°42'3 5.6
2018-Apr-12 06:00N 47°36' W 052°42'364.6 1018.8 -3.8-4.0
2018-Apr-12 05:57N 47°33' W 052°42'0 0.0
2018-Apr-12 05:30N 47°33' W 052°42'3 5.1
2018-Apr-12 05:00N 47°36' W 052°42'364.6 200 / 11018.6 -3.5-3.6
2018-Apr-12 04:57N 47°33' W 052°42'0 0.0
2018-Apr-12 04:30N 47°33' W 052°42'0 0.0
2018-Apr-12 04:00N 47°33' W 052°42'3265.9
2018-Apr-12 04:00N 47°36' W 052°42'3 4.8 170 / 11019.0 -3.1-3.3
2018-Apr-12 03:27N 47°33' W 052°42'3 5.6
2018-Apr-12 03:00N 47°36' W 052°42'328.6 220 / 11019.1 -2.5-3.1
2018-Apr-12 02:54N 47°33' W 052°42'0 0.0
2018-Apr-12 02:21N 47°33' W 052°42'3 7.2
2018-Apr-12 02:00N 47°36' W 052°42'328.8 1019.7 -2.0-3.1
2018-Apr-12 01:54N 47°33' W 052°42'0 0.0
2018-Apr-12 01:21N 47°33' W 052°42'3 7.2
2018-Apr-12 01:00N 47°36' W 052°42'328.8 1020.0 -1.2-2.7
2018-Apr-12 00:54N 47°33' W 052°42'0 0.0
2018-Apr-12 00:30N 47°33' W 052°42'0 0.0
2018-Apr-12 00:00N 47°33' W 052°42'3258.5
2018-Apr-12 00:00N 47°36' W 052°42'3 4.4 1020.5 -0.8-2.5
2018-Apr-11 23:24N 47°33' W 052°42'0 0.0
2018-Apr-11 23:00N 47°33' W 052°42'3258.5
2018-Apr-11 23:00N 47°36' W 052°42'3 4.8 150 / 21020.5 -0.4-2.5
2018-Apr-11 22:27N 47°33' W 052°42'0 0.0
2018-Apr-11 22:00N 47°33' W 052°42'3251.5
2018-Apr-11 22:00N 47°36' W 052°42'3 5.3 200 / 21020.2 0.4-2.4
2018-Apr-11 21:30N 47°33' W 052°42'3 5.1
2018-Apr-11 21:00N 47°36' W 052°42'365.1 210 / 41020.3 0.2-2.7
2018-Apr-11 20:57N 47°33' W 052°42'0 0.0
2018-Apr-11 20:24N 47°33' W 052°42'0 0.0
2018-Apr-11 20:00N 47°33' W 052°42'3258.5
2018-Apr-11 20:00N 47°36' W 052°42'3 5.3 190 / 41020.3 0.9-3.9
2018-Apr-11 19:30N 47°33' W 052°42'3 5.1
2018-Apr-11 19:00N 47°36' W 052°42'365.1 190 / 31020.2 1.6-2.9
2018-Apr-11 18:57N 47°33' W 052°42'0 0.0
2018-Apr-11 18:29N 47°33' W 052°42'3 5.3
2018-Apr-11 18:00N 47°36' W 052°42'3238.6 190 / 41020.8 1.6-3.0
2018-Apr-11 17:59N 47°33' W 052°42'3 2.6
2018-Apr-11 17:00N 47°36' W 052°42'3 8.3 170 / 41021.2 1.8-2.9
2018-Apr-11 16:41N 47°33' W 052°42'0 0.0
2018-Apr-11 16:23N 47°33' W 052°42'3 6.6
2018-Apr-11 16:00N 47°36' W 052°42'323.3 170 / 31021.8 2.7-3.3
2018-Apr-11 15:53N 47°33' W 052°42'0 0.0
2018-Apr-11 15:29N 47°33' W 052°42'3 5.3
2018-Apr-11 15:00N 47°36' W 052°42'316.1 150 / 41023.0 2.7-3.4
2018-Apr-11 14:50N 47°33' W 052°42'0 0.0
2018-Apr-11 14:29N 47°33' W 052°42'3 5.3
2018-Apr-11 14:00N 47°36' W 052°42'3238.6 230 / 21023.7 2.9-5.9
2018-Apr-11 13:59N 47°33' W 052°42'0 0.0
2018-Apr-11 13:29N 47°33' W 052°42'3 5.3
2018-Apr-11 13:00N 47°36' W 052°42'3238.6 250 / 61024.3 0.6-5.4
2018-Apr-11 12:59N 47°33' W 052°42'0 0.0
2018-Apr-11 12:29N 47°33' W 052°42'3 5.3
2018-Apr-11 12:00N 47°36' W 052°42'3238.6 220 / 91024.6 0.2-4.9
2018-Apr-11 11:59N 47°33' W 052°42'0 0.0
2018-Apr-11 11:26N 47°33' W 052°42'3 5.9
2018-Apr-11 11:00N 47°36' W 052°42'3244.9 220 / 61024.3 -0.5-4.2
2018-Apr-11 10:59N 47°33' W 052°42'0 0.0
2018-Apr-11 10:26N 47°33' W 052°42'3 5.9
2018-Apr-11 10:00N 47°36' W 052°42'323.3 200 / 31024.3 -2.0-4.0
2018-Apr-11 09:53N 47°33' W 052°42'0 0.0
2018-Apr-11 09:14N 47°33' W 052°42'310.8
2018-Apr-11 09:00N 47°36' W 052°42'342.7 210 / 41024.2 -2.6-4.2
2018-Apr-11 08:56N 47°33' W 052°42'0 0.0
2018-Apr-11 08:26N 47°33' W 052°42'3 5.9
2018-Apr-11 08:00N 47°36' W 052°42'3238.6 170 / 31023.5 -1.7-3.7
2018-Apr-11 07:59N 47°33' W 052°42'0 0.0
2018-Apr-11 07:29N 47°33' W 052°42'3 5.3
2018-Apr-11 07:00N 47°36' W 052°42'3238.6 170 / 41023.3 -1.3-3.2
2018-Apr-11 06:59N 47°33' W 052°42'0 0.0
2018-Apr-11 06:29N 47°33' W 052°42'3 5.3
2018-Apr-11 06:00N 47°36' W 052°42'3244.9 170 / 11023.3 -1.2-3.0
2018-Apr-11 05:59N 47°33' W 052°42'0 0.0
2018-Apr-11 05:08N 47°33' W 052°42'318.6
2018-Apr-11 05:00N 47°36' W 052°42'342.7 180 / 21023.6 -0.8-2.8
2018-Apr-11 04:56N 47°33' W 052°42'0 0.0
2018-Apr-11 04:23N 47°33' W 052°42'3 6.6
2018-Apr-11 04:00N 47°36' W 052°42'342.7 200 / 21023.2 -0.5-3.2
2018-Apr-11 03:56N 47°33' W 052°42'0 0.0
2018-Apr-11 03:29N 47°33' W 052°42'3 5.3
2018-Apr-11 03:00N 47°36' W 052°42'323.4 210 / 31022.4 -0.5-3.4
2018-Apr-11 02:53N 47°33' W 052°42'0 0.0
2018-Apr-11 02:29N 47°33' W 052°42'3 5.3
2018-Apr-11 02:00N 47°36' W 052°42'3244.9 220 / 51022.0 -0.1-3.8
2018-Apr-11 01:59N 47°33' W 052°42'0 0.0
2018-Apr-11 01:29N 47°33' W 052°42'3 5.3
2018-Apr-11 01:00N 47°36' W 052°42'3238.6 220 / 71021.5 0.1-4.1
2018-Apr-11 00:59N 47°33' W 052°42'0 0.0
2018-Apr-11 00:23N 47°33' W 052°42'3 6.6
2018-Apr-11 00:00N 47°36' W 052°42'3244.9 210 / 61020.8 0.6-4.6
2018-Apr-10 23:59N 47°33' W 052°42'0 0.0
2018-Apr-10 23:23N 47°33' W 052°42'3 6.6
2018-Apr-10 23:00N 47°36' W 052°42'3251.5 220 / 51019.4 1.0-4.9
2018-Apr-10 22:59N 47°33' W 052°42'0 0.0
2018-Apr-10 22:23N 47°33' W 052°42'3 6.6
2018-Apr-10 22:00N 47°36' W 052°42'3238.1 220 / 81018.1 1.3-5.6
2018-Apr-10 21:59N 47°33' W 052°42'0 0.0
2018-Apr-10 21:26N 47°33' W 052°42'0 0.0
2018-Apr-10 20:59N 47°33' W 052°42'0 0.0
2018-Apr-10 20:29N 47°33' W 052°42'3 5.3
2018-Apr-10 20:00N 47°36' W 052°42'3251.5 230 / 121016.5 1.9-6.0
2018-Apr-10 19:59N 47°33' W 052°42'0 0.0
2018-Apr-10 19:29N 47°33' W 052°42'3 5.3
2018-Apr-10 19:00N 47°36' W 052°42'2157.2 260 / 131015.2 1.9-6.2
2018-Apr-10 18:59N 47°34' W 052°42'9 9.5
2018-Apr-10 18:00N 47°42' W 052°36'1312.7 280 / 241014.8 1.9-7.1
2018-Apr-10 17:00N 47°54' W 052°42'1818.0 270 / 211013.6 1.0-5.6
2018-Apr-10 16:00N 48°12' W 052°42'1312.6 260 / 241012.2 0.6-5.7
2018-Apr-10 15:00N 48°24' W 052°48'1818.0 270 / 211011.4 0.9-6.5
2018-Apr-10 14:00N 48°42' W 052°48'1211.9 280 / 231010.6 -0.1-4.8
2018-Apr-10 13:00N 48°42' W 053°06'8 7.9 270 / 211009.8 1.0-5.6
2018-Apr-10 12:00N 48°42' W 053°18'0 0.0 270 / 251009.0 -1.1-6.9
2018-Apr-10 11:00N 48°42' W 053°18'6 6.0 250 / 271007.1 -1.7-5.2
2018-Apr-10 10:00N 48°36' W 053°18'8 7.9 260 / 191006.7 -1.2-5.4
2018-Apr-10 09:00N 48°36' W 053°30'7 7.2 240 / 221006.3 -2.5-5.4
2018-Apr-10 08:00N 48°30' W 053°36'1212.0 260 / 231004.9 -2.2-5.7
2018-Apr-10 07:00N 48°42' W 053°36'8 7.9 260 / 261003.0 -2.2-5.9
2018-Apr-10 06:00N 48°42' W 053°24'4 4.0 250 / 271001.7 -2.0-6.0
2018-Apr-10 05:00N 48°42' W 053°18'6 6.0 250 / 291000.5 -1.6-5.6
2018-Apr-10 04:00N 48°36' W 053°18'8 7.9 260 / 151000.2 -0.8-5.2
2018-Apr-10 03:00N 48°36' W 053°30'4 4.0 250 / 24999.1 -1.3-5.9
2018-Apr-10 02:00N 48°36' W 053°36'7 7.2 260 / 34997.6 -0.7-6.5
2018-Apr-10 01:00N 48°42' W 053°30'8 7.9 250 / 25995.2 -0.5-6.4
2018-Apr-10 00:00N 48°42' W 053°18'6 6.0 250 / 34992.8 -0.2-6.5
2018-Apr-09 23:00N 48°36' W 053°18'8 7.9 250 / 19991.4 0.6-6.0
2018-Apr-09 22:00N 48°36' W 053°30'4 4.0 240 / 38989.7 0.3-6.5
2018-Apr-09 21:00N 48°36' W 053°36'7 7.2 240 / 43986.6 1.3-6.3
2018-Apr-09 20:00N 48°42' W 053°30'16 7.9 250 / 48984.6 1.7-5.7
2018-Apr-09 18:00N 48°42' W 053°54'0 0.0 230 / 32981.0 2.4-5.5
2018-Apr-09 17:00N 48°42' W 053°54'0 0.0 240 / 32977.2 3.0-5.5
2018-Apr-09 16:00N 48°42' W 053°54'0 0.0 240 / 32975.4 2.7-3.0
2018-Apr-09 15:00N 48°42' W 053°54'0 0.0 220 / 34974.6 2.9-2.1
2018-Apr-09 14:00N 48°42' W 053°54'0 0.0 200 / 33973.0 2.2-0.8
2018-Apr-09 13:00N 48°42' W 053°54'0 0.0 190 / 31972.8 3.5 0.8
2018-Apr-09 12:00N 48°42' W 053°54'0 0.0 180 / 24972.6 5.6 5.4
2018-Apr-09 11:00N 48°42' W 053°54'0 0.0 180 / 22973.7 9.5 9.3
2018-Apr-09 10:00N 48°42' W 053°54'0 0.0 170 / 17976.2 8.9 8.9
2018-Apr-09 09:00N 48°42' W 053°54'   979.0 1.1 1.0
Track history (hours):
 
Tides and Currents Weather Stations Pressure Air Temp Water Temp Dewpoint Dewpoint Depression Visibility Wind Speed Wind Dir Waves Ship Positions

Edward Cornwallis

Last reported at 2018-Apr-19 09:00 UTC. Time now 2018-Apr-19 10:08 UTC.
Position N 51°18' W 055°54'.

Length 83 m; draft 6 m.

Type: SAR. MMSI: 316020000.

Wind from 320 at 1 knots

Barometer 995.3 mb
Air temperature -1.3 ° C
Dewpoint -1.4 ° C

Date/timePositionNaut miles runAvg speedWind from/ knotsBaromVisibWave heightAir tempDewpointWater temp
2018-Apr-19 09:00N 51°18' W 055°54'0 0.0 320 / 1995.3 -1.3-1.4
2018-Apr-19 08:00N 51°18' W 055°54'0 0.0 995.4 -1.3-1.4
2018-Apr-19 07:00N 51°18' W 055°54'0 0.0 995.4 -1.2-1.3
2018-Apr-19 06:00N 51°18' W 055°54'0 0.0 995.4 -1.2-1.3
2018-Apr-19 05:00N 51°18' W 055°54'0 0.0 995.5 -1.4-1.5
2018-Apr-19 04:00N 51°18' W 055°54'0 0.0 996.0 -1.3-1.4
2018-Apr-19 03:00N 51°18' W 055°54'0 0.0 996.6 -1.4-1.5
2018-Apr-19 02:00N 51°18' W 055°54'0 0.0 997.7 -1.4-1.5
2018-Apr-19 01:00N 51°18' W 055°54'0 0.0 998.2 -1.5-1.6
2018-Apr-19 00:00N 51°18' W 055°54'0 0.0 080 / 1999.0 -1.6-1.7
2018-Apr-18 23:00N 51°18' W 055°54'0 0.0 070 / 1999.5 -1.7-1.9
2018-Apr-18 22:00N 51°18' W 055°54'0 0.0 080 / 1999.6 -1.8-1.9
2018-Apr-18 21:00N 51°18' W 055°54'1312.8 080 / 131001.2 -1.6-1.7
2018-Apr-18 20:00N 51°12' W 055°36'1312.6 140 / 111001.3 -1.4-1.5
2018-Apr-18 19:00N 51°00' W 055°42'1414.2 200 / 131002.3 -1.2-1.4
2018-Apr-18 18:00N 50°48' W 055°54'1312.6 200 / 131001.9 -1.3-1.4
2018-Apr-18 17:00N 50°36' W 056°00'1414.2 200 / 131002.5 -1.3-1.4
2018-Apr-18 16:00N 50°24' W 056°12'2814.2 190 / 121003.3 -1.2-1.3
2018-Apr-18 14:00N 50°00' W 056°36'17 8.3 210 / 111004.8 -1.1-1.2
2018-Apr-18 12:00N 49°48' W 056°54'4 3.9 060 / 51006.9 -0.1-0.2
2018-Apr-18 11:00N 49°48' W 056°48'4 3.9 320 / 21007.7 -0.2-0.4
2018-Apr-18 10:00N 49°48' W 056°54'10 9.8 060 / 41008.8 0.2-0.0
2018-Apr-18 09:00N 49°54' W 056°42'8 7.7 030 / 131011.1 -1.3-1.5
2018-Apr-18 08:00N 49°54' W 056°30'1312.6 050 / 101012.7 -1.4-1.7
2018-Apr-18 07:00N 50°06' W 056°24'7 7.1 060 / 141014.4 -2.1-2.3
2018-Apr-18 06:00N 50°12' W 056°18'8 7.7 080 / 181015.9 -2.5-2.7
2018-Apr-18 05:00N 50°12' W 056°06'8 7.7 110 / 91017.0 -1.0-2.5
2018-Apr-18 04:00N 50°12' W 055°54'10 9.8 110 / 121018.5 -1.1-2.7
2018-Apr-18 03:00N 50°06' W 055°42'4 3.8 110 / 171019.6 -2.5-3.9
2018-Apr-18 02:00N 50°06' W 055°36'8 7.7 110 / 111020.5 -0.5-3.1
2018-Apr-18 01:00N 50°06' W 055°24'10 9.8 100 / 101021.2 -2.2-4.1
2018-Apr-18 00:00N 50°00' W 055°12'7 7.1 100 / 121022.1 -2.4-4.4
2018-Apr-17 23:00N 49°54' W 055°06'8 7.7 080 / 121021.4 -2.6-5.2
2018-Apr-17 22:00N 49°54' W 055°18'6 6.0 090 / 141021.8 -2.5-4.4
2018-Apr-17 21:00N 49°48' W 055°18'7 7.1 090 / 151022.2 -2.2-4.1
2018-Apr-17 20:00N 49°42' W 055°12'6 6.0 080 / 131022.5 -1.7-4.0
2018-Apr-17 19:00N 49°36' W 055°12'6 6.0 070 / 91022.9 -1.3-4.3
2018-Apr-17 18:00N 49°30' W 055°12'0 0.0 350 / 61023.0 -0.0-5.1
2018-Apr-17 17:00N 49°30' W 055°12'0 0.0 350 / 61023.3 0.4-5.5
2018-Apr-17 16:00N 49°30' W 055°12'7 7.2 360 / 71024.0 -0.7-4.2
2018-Apr-17 15:00N 49°36' W 055°06'10 9.8 360 / 91024.2 -1.1-3.4
2018-Apr-17 14:00N 49°42' W 054°54'1211.6 340 / 111024.2 -1.3-3.7
2018-Apr-17 13:00N 49°42' W 054°36'10 9.8 360 / 131024.2 -1.3-5.6
2018-Apr-17 12:00N 49°36' W 054°24'7 7.2 310 / 151023.6 -1.0-4.6
2018-Apr-17 11:00N 49°30' W 054°18'1615.6 320 / 101023.3 -1.4-4.7
2018-Apr-17 10:00N 49°30' W 053°54'8 7.8 310 / 161022.9 -1.7-4.6
2018-Apr-17 09:00N 49°30' W 053°42'10 9.8 300 / 91022.2 -1.7-5.2
2018-Apr-17 08:00N 49°24' W 053°30'7 7.2 280 / 131022.2 -2.2-5.5
2018-Apr-17 07:00N 49°18' W 053°24'7 7.2 290 / 191022.2 -1.9-6.6
2018-Apr-17 06:00N 49°12' W 053°18'4 3.9 280 / 181022.1 -2.0-7.4
2018-Apr-17 05:00N 49°12' W 053°12'7 7.2 280 / 181022.2 -2.2-7.1
2018-Apr-17 04:00N 49°06' W 053°06'1312.6 280 / 181022.7 -2.0-6.9
2018-Apr-17 03:00N 48°54' W 053°00'4 3.9 280 / 171023.2 -1.8-6.2
2018-Apr-17 02:00N 48°54' W 052°54'7 7.2 290 / 161023.7 -1.9-7.0
2018-Apr-17 01:00N 48°48' W 052°48'6 6.0 290 / 171024.3 -2.2-6.9
2018-Apr-17 00:00N 48°42' W 052°48'7 7.2 300 / 171024.5 -2.3-7.1
2018-Apr-16 23:00N 48°36' W 052°42'0 0.0 330 / 141024.4 -2.5-6.4
2018-Apr-16 22:00N 48°36' W 052°42'7 7.2 330 / 191024.3 -2.5-6.3
2018-Apr-16 21:00N 48°30' W 052°36'6 6.0 320 / 181024.8 -2.2-6.3
2018-Apr-16 20:00N 48°24' W 052°36'6 6.0 320 / 211024.7 -2.2-7.0
2018-Apr-16 19:00N 48°18' W 052°36'1212.0 330 / 211024.6 -2.2-7.4
2018-Apr-16 18:00N 48°06' W 052°36'0 0.0 330 / 231025.2 -2.1-9.1
2018-Apr-16 17:00N 48°06' W 052°36'12 6.0 330 / 231025.1 -2.4-8.5
2018-Apr-16 15:00N 47°54' W 052°36'6 6.0 340 / 181025.7 -2.7-4.2
2018-Apr-16 14:00N 47°48' W 052°36'6 6.0 310 / 201025.9 -1.5-6.3
2018-Apr-16 13:00N 47°42' W 052°36'6 6.8 300 / 241025.5 -1.2-6.3
2018-Apr-16 12:10N 47°36' W 052°37'2 9.4
2018-Apr-16 11:55N 47°34' W 052°38'3 3.4
2018-Apr-16 11:00N 47°36' W 052°42'0 0.0 200 / 11026.9 1.5-6.8
2018-Apr-16 10:00N 47°36' W 052°42'0 0.0 210 / 21026.9 0.4-4.6
2018-Apr-16 09:00N 47°36' W 052°42'2 2.3 220 / 21027.0 -1.0-3.9
2018-Apr-16 08:01N 47°34' W 052°42'298.4
2018-Apr-16 08:00N 47°36' W 052°42'217.6 220 / 31027.1 -1.5-5.1
2018-Apr-16 07:52N 47°34' W 052°42'0 0.0
2018-Apr-16 07:22N 47°34' W 052°42'2 6.0
2018-Apr-16 07:00N 47°36' W 052°42'2 5.2 160 / 11027.5 -1.4-6.1
2018-Apr-16 06:34N 47°34' W 052°42'0 0.0
2018-Apr-16 06:25N 47°34' W 052°42'2 5.3
2018-Apr-16 06:00N 47°36' W 052°42'229.0 200 / 11027.6 -1.2-5.5
2018-Apr-16 05:55N 47°34' W 052°42'0 0.0
2018-Apr-16 05:22N 47°34' W 052°42'2 6.0
2018-Apr-16 05:00N 47°36' W 052°42'0 0.0 050 / 11027.1 -1.0-6.5
2018-Apr-16 04:00N 47°36' W 052°42'2 4.3 030 / 31026.5 -0.9-5.3
2018-Apr-16 03:28N 47°34' W 052°42'2 4.7
2018-Apr-16 03:00N 47°36' W 052°42'212.6 030 / 31026.0 -0.2-4.9
2018-Apr-16 02:49N 47°34' W 052°42'0 0.0
2018-Apr-16 02:25N 47°34' W 052°42'2 5.3
2018-Apr-16 02:00N 47°36' W 052°42'0 0.0 030 / 51025.5 0.2-5.2
2018-Apr-16 01:00N 47°36' W 052°42'229.0 040 / 21024.6 0.4-4.3
2018-Apr-16 00:55N 47°34' W 052°42'0 0.0
2018-Apr-16 00:19N 47°34' W 052°42'2 6.9
2018-Apr-16 00:00N 47°36' W 052°42'228.9 030 / 41023.5 0.6-4.4
2018-Apr-15 23:55N 47°34' W 052°42'0 0.0
2018-Apr-15 23:22N 47°34' W 052°42'2 6.0
2018-Apr-15 23:00N 47°36' W 052°42'229.1 030 / 11022.4 0.4-3.2
2018-Apr-15 22:55N 47°34' W 052°42'0 0.0
2018-Apr-15 22:25N 47°34' W 052°42'2 5.3
2018-Apr-15 22:00N 47°36' W 052°42'0 0.0 070 / 11021.0 0.5-2.6
2018-Apr-15 21:00N 47°36' W 052°42'0 0.0 080 / 11019.7 0.9-2.9
2018-Apr-15 19:00N 47°36' W 052°42'0 0.0 040 / 11017.6 1.8-4.1
2018-Apr-15 18:00N 47°36' W 052°42'0 0.0 150 / 21016.4 2.0-4.0
2018-Apr-15 17:00N 47°36' W 052°42'2 3.1 180 / 31015.0 2.8-5.4
2018-Apr-15 16:16N 47°34' W 052°42'2 8.2
2018-Apr-15 16:00N 47°36' W 052°42'212.6 190 / 31014.1 2.8-6.3
2018-Apr-15 15:49N 47°34' W 052°42'0 0.0
2018-Apr-15 15:25N 47°34' W 052°42'2 5.3
2018-Apr-15 15:00N 47°36' W 052°42'281.5 200 / 41012.9 2.0-6.9
2018-Apr-15 14:58N 47°34' W 052°42'0 0.0
2018-Apr-15 14:25N 47°34' W 052°42'2 5.3
2018-Apr-15 14:00N 47°36' W 052°42'229.0 180 / 21012.0 1.0-7.1
2018-Apr-15 13:55N 47°34' W 052°42'2 2.4
2018-Apr-15 13:00N 47°36' W 052°42'217.7 230 / 91010.8 -1.0-8.2
2018-Apr-15 12:52N 47°34' W 052°42'0 0.0
2018-Apr-15 12:28N 47°34' W 052°42'2 4.7
2018-Apr-15 12:00N 47°36' W 052°42'212.6 230 / 91010.7 -1.9-8.4
2018-Apr-15 11:49N 47°34' W 052°42'0 0.0
2018-Apr-15 11:25N 47°34' W 052°42'2 5.3
2018-Apr-15 11:00N 47°36' W 052°42'217.6 230 / 81009.9 -2.8-9.1
2018-Apr-15 10:52N 47°34' W 052°42'0 0.0
2018-Apr-15 10:28N 47°34' W 052°42'2 4.7
2018-Apr-15 10:00N 47°36' W 052°42'229.0 230 / 91008.8 -3.9-9.6
2018-Apr-15 09:55N 47°34' W 052°42'0 0.0
2018-Apr-15 09:28N 47°34' W 052°42'2 4.7
2018-Apr-15 09:00N 47°36' W 052°42'2 6.8 230 / 81007.5 -4.5-9.8
2018-Apr-15 08:40N 47°34' W 052°42'0 0.0
2018-Apr-15 08:25N 47°34' W 052°42'2 5.3
2018-Apr-15 08:00N 47°36' W 052°42'282.3 230 / 101005.7 -4.3-9.9
2018-Apr-15 07:58N 47°34' W 052°42'0 0.0
2018-Apr-15 07:28N 47°34' W 052°42'2 4.7
2018-Apr-15 07:00N 47°36' W 052°42'0 0.0 230 / 81004.7 -3.7-9.1
2018-Apr-15 06:00N 47°36' W 052°42'0 0.0 230 / 71003.7 -3.3-9.3
2018-Apr-15 05:00N 47°36' W 052°42'2 5.2 220 / 71003.1 -2.9-8.5
2018-Apr-15 04:34N 47°34' W 052°42'0 0.0
2018-Apr-15 04:10N 47°34' W 052°42'213.0
2018-Apr-15 04:00N 47°36' W 052°42'2 6.8 230 / 81002.1 -2.8-8.4
2018-Apr-15 03:40N 47°34' W 052°42'2 3.3
2018-Apr-15 03:00N 47°36' W 052°42'0 0.0 230 / 81001.2 -2.7-8.2
2018-Apr-15 02:00N 47°36' W 052°42'2 2.6 240 / 91000.6 -3.1-9.4
2018-Apr-15 01:07N 47°34' W 052°42'218.3
2018-Apr-15 01:00N 47°36' W 052°42'2 2.2 230 / 6999.9 -2.8-9.8
2018-Apr-14 23:58N 47°34' W 052°42'0 0.0
2018-Apr-14 23:22N 47°34' W 052°42'2 6.0
2018-Apr-14 23:00N 47°36' W 052°42'229.0 240 / 9997.9 -1.1-7.9
2018-Apr-14 22:55N 47°34' W 052°42'0 0.0
2018-Apr-14 22:25N 47°34' W 052°42'2 5.3
2018-Apr-14 22:00N 47°36' W 052°42'228.9 230 / 6997.3 0.3-0.5
2018-Apr-14 21:55N 47°34' W 052°42'0 0.0
2018-Apr-14 21:25N 47°34' W 052°42'2 5.3
2018-Apr-14 21:00N 47°36' W 052°42'212.6 230 / 8997.0 3.2 2.3
2018-Apr-14 20:49N 47°34' W 052°42'2 2.7
2018-Apr-14 20:00N 47°36' W 052°42'2 2.9 230 / 10996.9 5.0 1.4
2018-Apr-14 19:13N 47°34' W 052°42'210.1
2018-Apr-14 19:00N 47°36' W 052°42'262.5 230 / 10998.0 5.8 1.6
2018-Apr-14 18:57N 47°34' W 052°42'2 2.3
2018-Apr-14 18:00N 47°36' W 052°42'3 3.6 210 / 91000.1 6.0-0.6
2018-Apr-14 17:16N 47°33' W 052°42'3 9.5
2018-Apr-14 17:00N 47°36' W 052°42'333.2 220 / 101002.3 6.4 0.5
2018-Apr-14 16:55N 47°33' W 052°42'0 0.0
2018-Apr-14 16:28N 47°33' W 052°42'3 5.5
2018-Apr-14 16:00N 47°36' W 052°42'320.2 230 / 131004.1 5.4 0.6
2018-Apr-14 15:52N 47°33' W 052°42'0 0.0
2018-Apr-14 15:28N 47°33' W 052°42'3 5.5
2018-Apr-14 15:00N 47°36' W 052°42'393.1 230 / 121005.1 4.2 0.7
2018-Apr-14 14:58N 47°33' W 052°42'0 0.0
2018-Apr-14 14:22N 47°33' W 052°42'3 6.9
2018-Apr-14 14:00N 47°36' W 052°42'333.4 230 / 151005.3 2.8 0.7
2018-Apr-14 13:55N 47°33' W 052°42'0 0.0
2018-Apr-14 13:22N 47°33' W 052°42'3 6.9
2018-Apr-14 13:00N 47°36' W 052°42'320.2 230 / 131005.6 2.8 1.2
2018-Apr-14 12:52N 47°33' W 052°42'0 0.0
2018-Apr-14 12:25N 47°33' W 052°42'3 6.1
2018-Apr-14 12:00N 47°36' W 052°42'394.0 220 / 81005.8 2.6 1.5
2018-Apr-14 11:58N 47°33' W 052°42'0 0.0
2018-Apr-14 11:19N 47°33' W 052°42'3 8.0
2018-Apr-14 11:00N 47°36' W 052°42'333.4 230 / 61005.8 2.1 1.5
2018-Apr-14 10:55N 47°33' W 052°42'0 0.0
2018-Apr-14 10:28N 47°33' W 052°42'3 5.5
2018-Apr-14 10:00N 47°36' W 052°42'333.4 220 / 111005.0 2.2 1.9
2018-Apr-14 09:55N 47°33' W 052°42'3 2.8
2018-Apr-14 09:00N 47°36' W 052°42'3 4.9 220 / 81004.4 1.8 1.7
2018-Apr-14 08:28N 47°33' W 052°42'3 5.5
2018-Apr-14 08:00N 47°36' W 052°42'333.2 210 / 51004.5 1.7 1.6
2018-Apr-14 07:55N 47°33' W 052°42'0 0.0
2018-Apr-14 07:22N 47°33' W 052°42'3 6.9
2018-Apr-14 07:00N 47°36' W 052°42'394.0 200 / 11005.1 0.8 0.7
2018-Apr-14 06:58N 47°33' W 052°42'0 0.0
2018-Apr-14 06:25N 47°33' W 052°42'3 6.1
2018-Apr-14 06:00N 47°36' W 052°42'394.0 170 / 41006.1 0.3 0.1
2018-Apr-14 05:58N 47°33' W 052°42'0 0.0
2018-Apr-14 05:28N 47°33' W 052°42'3 5.5
2018-Apr-14 05:00N 47°36' W 052°42'333.2 180 / 21008.5 -0.3-0.5
2018-Apr-14 04:55N 47°33' W 052°42'0 0.0
2018-Apr-14 04:25N 47°33' W 052°42'3 6.1
2018-Apr-14 04:00N 47°36' W 052°42'333.2 180 / 21010.7 -0.5-0.6
2018-Apr-14 03:55N 47°33' W 052°42'0 0.0
2018-Apr-14 03:22N 47°33' W 052°42'3 6.9
2018-Apr-14 03:00N 47°36' W 052°42'314.6 190 / 21012.5 -0.7-0.8
2018-Apr-14 02:49N 47°33' W 052°42'0 0.0
2018-Apr-14 02:28N 47°33' W 052°42'3 5.5
2018-Apr-14 02:00N 47°36' W 052°42'333.2 160 / 21014.9 -0.9-1.1
2018-Apr-14 01:55N 47°33' W 052°42'0 0.0
2018-Apr-14 01:28N 47°33' W 052°42'3 5.5
2018-Apr-14 01:00N 47°36' W 052°42'394.0 200 / 31017.0 -1.1-1.2
2018-Apr-14 00:58N 47°33' W 052°42'0 0.0
2018-Apr-14 00:25N 47°33' W 052°42'3 6.1
2018-Apr-14 00:00N 47°36' W 052°42'333.4 200 / 41018.7 -0.3-1.4
2018-Apr-13 23:55N 47°33' W 052°42'0 0.0
2018-Apr-13 23:28N 47°33' W 052°42'3 5.5
2018-Apr-13 23:00N 47°36' W 052°42'394.0 200 / 41019.0 0.4-3.5
2018-Apr-13 22:58N 47°33' W 052°42'0 0.0
2018-Apr-13 22:22N 47°33' W 052°42'3 6.9
2018-Apr-13 22:00N 47°36' W 052°42'393.1 190 / 41019.6
2018-Apr-13 21:58N 47°33' W 052°42'0 0.0
2018-Apr-13 21:01N 47°33' W 052°42'3114.9
2018-Apr-13 21:00N 47°36' W 052°42'3 9.3
2018-Apr-13 20:43N 47°33' W 052°42'0 0.0
2018-Apr-13 20:13N 47°33' W 052°42'311.6
2018-Apr-13 20:00N 47°36' W 052°42'3 3.3 180 / 31021.5 3.0-9.9
2018-Apr-13 19:13N 47°33' W 052°42'311.6
2018-Apr-13 19:00N 47°36' W 052°42'0 0.0
2018-Apr-13 18:00N 47°36' W 052°42'0 0.0 180 / 51022.6 4.9-12.3
2018-Apr-13 17:00N 47°36' W 052°42'3 7.9 180 / 51023.2 4.5-12.5
2018-Apr-13 16:40N 47°33' W 052°42'3 3.8
2018-Apr-13 16:00N 47°36' W 052°42'0 0.0 170 / 41023.3 4.5-12.7
2018-Apr-13 15:00N 47°36' W 052°42'3 2.8 170 / 31023.7 5.5-12.2
2018-Apr-13 14:04N 47°33' W 052°42'335.7
2018-Apr-13 14:00N 47°36' W 052°42'333.4 170 / 31024.1 5.0-13.1
2018-Apr-13 13:55N 47°33' W 052°42'3 2.8
2018-Apr-13 13:00N 47°36' W 052°42'0 0.0 050 / 51023.8 3.2-7.8
2018-Apr-13 12:00N 47°36' W 052°42'0 0.0 170 / 11024.1 2.9-7.2
2018-Apr-13 11:00N 47°36' W 052°42'3 4.1 210 / 31024.0 -0.6-5.2
2018-Apr-13 10:22N 47°33' W 052°42'3 6.9
2018-Apr-13 10:00N 47°36' W 052°42'395.0 220 / 31023.5 -3.7-5.6
2018-Apr-13 09:58N 47°33' W 052°42'3 2.7
2018-Apr-13 09:00N 47°36' W 052°42'3 4.1 210 / 31023.2 -4.3-5.4
2018-Apr-13 08:22N 47°33' W 052°42'3 6.9
2018-Apr-13 08:00N 47°36' W 052°42'311.4 210 / 41022.8 -4.4-5.3
2018-Apr-13 07:46N 47°33' W 052°42'0 0.0
2018-Apr-13 07:25N 47°33' W 052°42'3 6.1
2018-Apr-13 07:00N 47°36' W 052°42'3 3.3 180 / 11022.2 -3.3-4.4
2018-Apr-13 06:13N 47°33' W 052°42'311.6
2018-Apr-13 06:00N 47°36' W 052°42'393.1 210 / 31021.4 -4.1-5.2
2018-Apr-13 05:58N 47°33' W 052°42'0 0.0
2018-Apr-13 05:19N 47°33' W 052°42'3 8.0
2018-Apr-13 05:00N 47°36' W 052°42'0 0.0 190 / 11021.1 -3.3-4.5
2018-Apr-13 04:00N 47°36' W 052°42'394.0 200 / 11021.0 -2.8-4.1
2018-Apr-13 03:58N 47°33' W 052°42'3 2.7
2018-Apr-13 03:00N 47°36' W 052°42'3 2.9 200 / 11020.8 -2.2-3.6
2018-Apr-13 02:07N 47°33' W 052°42'321.1
2018-Apr-13 02:00N 47°36' W 052°42'314.6 160 / 11020.3 -2.2-3.5
2018-Apr-13 01:49N 47°33' W 052°42'0 0.0
2018-Apr-13 01:25N 47°33' W 052°42'3 6.1
2018-Apr-13 01:00N 47°36' W 052°42'3 5.4 040 / 11020.1 -2.5-3.1
2018-Apr-13 00:31N 47°33' W 052°42'0 0.0
2018-Apr-13 00:25N 47°33' W 052°42'3 6.1
2018-Apr-13 00:00N 47°36' W 052°42'3 3.3 030 / 41019.6 -2.5-2.8
2018-Apr-12 23:13N 47°33' W 052°42'311.6
2018-Apr-12 23:00N 47°36' W 052°42'0 0.0 010 / 71019.0 -1.6-2.7
2018-Apr-12 22:00N 47°36' W 052°42'0 0.0 030 / 61018.5 -0.6-5.0
2018-Apr-12 21:00N 47°36' W 052°42'0 0.0 010 / 101018.3 0.1-5.1
2018-Apr-12 20:00N 47°36' W 052°42'0 0.0 030 / 71018.0 0.5-5.8
2018-Apr-12 19:00N 47°36' W 052°42'0 0.0 020 / 91018.0 0.4-4.4
2018-Apr-12 18:00N 47°36' W 052°42'3 5.9 030 / 81017.9 0.6-3.6
2018-Apr-12 17:33N 47°33' W 052°42'0 1.5
2018-Apr-12 17:28N 47°34' W 052°42'510.4
2018-Apr-12 17:00N 47°36' W 052°36'238.6 010 / 141018.3 -1.2-1.6
2018-Apr-12 16:56N 47°34' W 052°37'2 3.2
2018-Apr-12 16:25N 47°34' W 052°34'510.8
2018-Apr-12 16:00N 47°30' W 052°30'232.2 020 / 131018.4 -1.3-1.9
2018-Apr-12 15:55N 47°32' W 052°31'3 6.8
2018-Apr-12 15:29N 47°35' W 052°30'1 1.5
2018-Apr-12 15:00N 47°36' W 052°30'133.6 090 / 11018.7 -1.8-2.2
2018-Apr-12 14:58N 47°37' W 052°31'610.9
2018-Apr-12 14:23N 47°34' W 052°39'2 6.1
2018-Apr-12 14:00N 47°33' W 052°42'3244.9
2018-Apr-12 14:00N 47°36' W 052°42'3 5.3 050 / 61019.2 -0.5-3.7
2018-Apr-12 13:30N 47°33' W 052°42'3 5.1
2018-Apr-12 13:00N 47°36' W 052°42'313.6 040 / 51019.4 -1.4-2.7
2018-Apr-12 12:48N 47°33' W 052°42'0 0.0
2018-Apr-12 12:24N 47°33' W 052°42'0 0.0
2018-Apr-12 12:00N 47°33' W 052°42'3251.5
2018-Apr-12 12:00N 47°36' W 052°42'3 4.8 040 / 61019.4 -1.9-2.7
2018-Apr-12 11:27N 47°33' W 052°42'3 5.6
2018-Apr-12 11:00N 47°36' W 052°42'0 0.0 030 / 51019.4 -2.4-2.6
2018-Apr-12 10:00N 47°36' W 052°42'0 0.0 040 / 41019.3 -2.5-2.6
2018-Apr-12 09:00N 47°36' W 052°42'3 4.0 040 / 31019.2 -2.6-2.8
2018-Apr-12 08:21N 47°33' W 052°42'0 0.0
2018-Apr-12 08:00N 47°33' W 052°42'3258.5
2018-Apr-12 08:00N 47°36' W 052°42'3 4.8 160 / 11019.3 -2.8-2.9
2018-Apr-12 07:27N 47°33' W 052°42'0 0.0
2018-Apr-12 07:00N 47°33' W 052°42'3258.5
2018-Apr-12 07:00N 47°36' W 052°42'3 4.8 1019.3 -3.7-3.9
2018-Apr-12 06:27N 47°33' W 052°42'3 5.6
2018-Apr-12 06:00N 47°36' W 052°42'364.6 1018.8 -3.8-4.0
2018-Apr-12 05:57N 47°33' W 052°42'0 0.0
2018-Apr-12 05:30N 47°33' W 052°42'3 5.1
2018-Apr-12 05:00N 47°36' W 052°42'364.6 200 / 11018.6 -3.5-3.6
2018-Apr-12 04:57N 47°33' W 052°42'0 0.0
2018-Apr-12 04:30N 47°33' W 052°42'0 0.0
2018-Apr-12 04:00N 47°33' W 052°42'3265.9
2018-Apr-12 04:00N 47°36' W 052°42'3 4.8 170 / 11019.0 -3.1-3.3
2018-Apr-12 03:27N 47°33' W 052°42'3 5.6
2018-Apr-12 03:00N 47°36' W 052°42'328.6 220 / 11019.1 -2.5-3.1
2018-Apr-12 02:54N 47°33' W 052°42'0 0.0
2018-Apr-12 02:21N 47°33' W 052°42'3 7.2
2018-Apr-12 02:00N 47°36' W 052°42'328.8 1019.7 -2.0-3.1
2018-Apr-12 01:54N 47°33' W 052°42'0 0.0
2018-Apr-12 01:21N 47°33' W 052°42'3 7.2
2018-Apr-12 01:00N 47°36' W 052°42'328.8 1020.0 -1.2-2.7
2018-Apr-12 00:54N 47°33' W 052°42'0 0.0
2018-Apr-12 00:30N 47°33' W 052°42'0 0.0
2018-Apr-12 00:00N 47°33' W 052°42'3258.5
2018-Apr-12 00:00N 47°36' W 052°42'3 4.4 1020.5 -0.8-2.5
2018-Apr-11 23:24N 47°33' W 052°42'0 0.0
2018-Apr-11 23:00N 47°33' W 052°42'3258.5
2018-Apr-11 23:00N 47°36' W 052°42'3 4.8 150 / 21020.5 -0.4-2.5
2018-Apr-11 22:27N 47°33' W 052°42'0 0.0
2018-Apr-11 22:00N 47°33' W 052°42'3251.5
2018-Apr-11 22:00N 47°36' W 052°42'3 5.3 200 / 21020.2 0.4-2.4
2018-Apr-11 21:30N 47°33' W 052°42'3 5.1
2018-Apr-11 21:00N 47°36' W 052°42'365.1 210 / 41020.3 0.2-2.7
2018-Apr-11 20:57N 47°33' W 052°42'0 0.0
2018-Apr-11 20:24N 47°33' W 052°42'0 0.0
2018-Apr-11 20:00N 47°33' W 052°42'3258.5
2018-Apr-11 20:00N 47°36' W 052°42'3 5.3 190 / 41020.3 0.9-3.9
2018-Apr-11 19:30N 47°33' W 052°42'3 5.1
2018-Apr-11 19:00N 47°36' W 052°42'365.1 190 / 31020.2 1.6-2.9
2018-Apr-11 18:57N 47°33' W 052°42'0 0.0
2018-Apr-11 18:29N 47°33' W 052°42'3 5.3
2018-Apr-11 18:00N 47°36' W 052°42'3238.6 190 / 41020.8 1.6-3.0
2018-Apr-11 17:59N 47°33' W 052°42'3 2.6
2018-Apr-11 17:00N 47°36' W 052°42'3 8.3 170 / 41021.2 1.8-2.9
2018-Apr-11 16:41N 47°33' W 052°42'0 0.0
2018-Apr-11 16:23N 47°33' W 052°42'3 6.6
2018-Apr-11 16:00N 47°36' W 052°42'323.3 170 / 31021.8 2.7-3.3
2018-Apr-11 15:53N 47°33' W 052°42'0 0.0
2018-Apr-11 15:29N 47°33' W 052°42'3 5.3
2018-Apr-11 15:00N 47°36' W 052°42'316.1 150 / 41023.0 2.7-3.4
2018-Apr-11 14:50N 47°33' W 052°42'0 0.0
2018-Apr-11 14:29N 47°33' W 052°42'3 5.3
2018-Apr-11 14:00N 47°36' W 052°42'3238.6 230 / 21023.7 2.9-5.9
2018-Apr-11 13:59N 47°33' W 052°42'0 0.0
2018-Apr-11 13:29N 47°33' W 052°42'3 5.3
2018-Apr-11 13:00N 47°36' W 052°42'3238.6 250 / 61024.3 0.6-5.4
2018-Apr-11 12:59N 47°33' W 052°42'0 0.0
2018-Apr-11 12:29N 47°33' W 052°42'3 5.3
2018-Apr-11 12:00N 47°36' W 052°42'3238.6 220 / 91024.6 0.2-4.9
2018-Apr-11 11:59N 47°33' W 052°42'0 0.0
2018-Apr-11 11:26N 47°33' W 052°42'3 5.9
2018-Apr-11 11:00N 47°36' W 052°42'3244.9 220 / 61024.3 -0.5-4.2
2018-Apr-11 10:59N 47°33' W 052°42'0 0.0
2018-Apr-11 10:26N 47°33' W 052°42'3 5.9
2018-Apr-11 10:00N 47°36' W 052°42'323.3 200 / 31024.3 -2.0-4.0
2018-Apr-11 09:53N 47°33' W 052°42'0 0.0
2018-Apr-11 09:14N 47°33' W 052°42'310.8
2018-Apr-11 09:00N 47°36' W 052°42'342.7 210 / 41024.2 -2.6-4.2
2018-Apr-11 08:56N 47°33' W 052°42'0 0.0
2018-Apr-11 08:26N 47°33' W 052°42'3 5.9
2018-Apr-11 08:00N 47°36' W 052°42'3238.6 170 / 31023.5 -1.7-3.7
2018-Apr-11 07:59N 47°33' W 052°42'0 0.0
2018-Apr-11 07:29N 47°33' W 052°42'3 5.3
2018-Apr-11 07:00N 47°36' W 052°42'3238.6 170 / 41023.3 -1.3-3.2
2018-Apr-11 06:59N 47°33' W 052°42'0 0.0
2018-Apr-11 06:29N 47°33' W 052°42'3 5.3
2018-Apr-11 06:00N 47°36' W 052°42'3244.9 170 / 11023.3 -1.2-3.0
2018-Apr-11 05:59N 47°33' W 052°42'0 0.0
2018-Apr-11 05:08N 47°33' W 052°42'318.6
2018-Apr-11 05:00N 47°36' W 052°42'342.7 180 / 21023.6 -0.8-2.8
2018-Apr-11 04:56N 47°33' W 052°42'0 0.0
2018-Apr-11 04:23N 47°33' W 052°42'3 6.6
2018-Apr-11 04:00N 47°36' W 052°42'342.7 200 / 21023.2 -0.5-3.2
2018-Apr-11 03:56N 47°33' W 052°42'0 0.0
2018-Apr-11 03:29N 47°33' W 052°42'3 5.3
2018-Apr-11 03:00N 47°36' W 052°42'323.4 210 / 31022.4 -0.5-3.4
2018-Apr-11 02:53N 47°33' W 052°42'0 0.0
2018-Apr-11 02:29N 47°33' W 052°42'3 5.3
2018-Apr-11 02:00N 47°36' W 052°42'3244.9 220 / 51022.0 -0.1-3.8
2018-Apr-11 01:59N 47°33' W 052°42'0 0.0
2018-Apr-11 01:29N 47°33' W 052°42'3 5.3
2018-Apr-11 01:00N 47°36' W 052°42'3238.6 220 / 71021.5 0.1-4.1
2018-Apr-11 00:59N 47°33' W 052°42'0 0.0
2018-Apr-11 00:23N 47°33' W 052°42'3 6.6
2018-Apr-11 00:00N 47°36' W 052°42'3244.9 210 / 61020.8 0.6-4.6
2018-Apr-10 23:59N 47°33' W 052°42'0 0.0
2018-Apr-10 23:23N 47°33' W 052°42'3 6.6
2018-Apr-10 23:00N 47°36' W 052°42'3251.5 220 / 51019.4 1.0-4.9
2018-Apr-10 22:59N 47°33' W 052°42'0 0.0
2018-Apr-10 22:23N 47°33' W 052°42'3 6.6
2018-Apr-10 22:00N 47°36' W 052°42'3238.1 220 / 81018.1 1.3-5.6
2018-Apr-10 21:59N 47°33' W 052°42'0 0.0
2018-Apr-10 21:26N 47°33' W 052°42'0 0.0
2018-Apr-10 20:59N 47°33' W 052°42'0 0.0
2018-Apr-10 20:29N 47°33' W 052°42'3 5.3
2018-Apr-10 20:00N 47°36' W 052°42'3251.5 230 / 121016.5 1.9-6.0
2018-Apr-10 19:59N 47°33' W 052°42'0 0.0
2018-Apr-10 19:29N 47°33' W 052°42'3 5.3
2018-Apr-10 19:00N 47°36' W 052°42'2157.2 260 / 131015.2 1.9-6.2
2018-Apr-10 18:59N 47°34' W 052°42'9 9.5
2018-Apr-10 18:00N 47°42' W 052°36'1312.7 280 / 241014.8 1.9-7.1
2018-Apr-10 17:00N 47°54' W 052°42'1818.0 270 / 211013.6 1.0-5.6
2018-Apr-10 16:00N 48°12' W 052°42'1312.6 260 / 241012.2 0.6-5.7
2018-Apr-10 15:00N 48°24' W 052°48'1818.0 270 / 211011.4 0.9-6.5
2018-Apr-10 14:00N 48°42' W 052°48'1211.9 280 / 231010.6 -0.1-4.8
2018-Apr-10 13:00N 48°42' W 053°06'8 7.9 270 / 211009.8 1.0-5.6
2018-Apr-10 12:00N 48°42' W 053°18'0 0.0 270 / 251009.0 -1.1-6.9
2018-Apr-10 11:00N 48°42' W 053°18'6 6.0 250 / 271007.1 -1.7-5.2
2018-Apr-10 10:00N 48°36' W 053°18'8 7.9 260 / 191006.7 -1.2-5.4
2018-Apr-10 09:00N 48°36' W 053°30'7 7.2 240 / 221006.3 -2.5-5.4
2018-Apr-10 08:00N 48°30' W 053°36'1212.0 260 / 231004.9 -2.2-5.7
2018-Apr-10 07:00N 48°42' W 053°36'8 7.9 260 / 261003.0 -2.2-5.9
2018-Apr-10 06:00N 48°42' W 053°24'4 4.0 250 / 271001.7 -2.0-6.0
2018-Apr-10 05:00N 48°42' W 053°18'6 6.0 250 / 291000.5 -1.6-5.6
2018-Apr-10 04:00N 48°36' W 053°18'8 7.9 260 / 151000.2 -0.8-5.2
2018-Apr-10 03:00N 48°36' W 053°30'4 4.0 250 / 24999.1 -1.3-5.9
2018-Apr-10 02:00N 48°36' W 053°36'7 7.2 260 / 34997.6 -0.7-6.5
2018-Apr-10 01:00N 48°42' W 053°30'8 7.9 250 / 25995.2 -0.5-6.4
2018-Apr-10 00:00N 48°42' W 053°18'6 6.0 250 / 34992.8 -0.2-6.5
2018-Apr-09 23:00N 48°36' W 053°18'8 7.9 250 / 19991.4 0.6-6.0
2018-Apr-09 22:00N 48°36' W 053°30'4 4.0 240 / 38989.7 0.3-6.5
2018-Apr-09 21:00N 48°36' W 053°36'7 7.2 240 / 43986.6 1.3-6.3
2018-Apr-09 20:00N 48°42' W 053°30'16 7.9 250 / 48984.6 1.7-5.7
2018-Apr-09 18:00N 48°42' W 053°54'0 0.0 230 / 32981.0 2.4-5.5
2018-Apr-09 17:00N 48°42' W 053°54'0 0.0 240 / 32977.2 3.0-5.5
2018-Apr-09 16:00N 48°42' W 053°54'0 0.0 240 / 32975.4 2.7-3.0
2018-Apr-09 15:00N 48°42' W 053°54'0 0.0 220 / 34974.6 2.9-2.1
2018-Apr-09 14:00N 48°42' W 053°54'0 0.0 200 / 33973.0 2.2-0.8
2018-Apr-09 13:00N 48°42' W 053°54'0 0.0 190 / 31972.8 3.5 0.8
2018-Apr-09 12:00N 48°42' W 053°54'0 0.0 180 / 24972.6 5.6 5.4
2018-Apr-09 11:00N 48°42' W 053°54'0 0.0 180 / 22973.7 9.5 9.3
2018-Apr-09 10:00N 48°42' W 053°54'0 0.0 170 / 17976.2 8.9 8.9
2018-Apr-09 09:00N 48°42' W 053°54'   979.0 1.1 1.0

Dump ship's entire track history